Flight Track Log - Related Links

Times and Time Zones

All times are in EDT time to prevent confusion due to time zone crossing. See the DAL268 flight status page for this flight to view local times or setup timezone preferences in your user account.

Time Position Orientation Groundspeed Altitude Reporting Facility
EDT Latitude Longitude Course Direction KTS km/h feet Rate Location/Type
Mon 19:37:43 33.6333 -84.4000 101° East 173 320 2.200  Level Atlanta TRACON
Mon 19:38:38 33.6333 -84.3333 90° East 228 422 3.300 1.842 Climbing Atlanta TRACON
Mon 19:39:37 33.6333 -84.2500 90° East 268 496 5.700 2.500 Climbing Atlanta TRACON
Mon 19:40:00 33.7082 -83.9822 101° East  Level FlightAware Approximate
Mon 19:40:38 33.6333 -84.1500 90° East 287 531 8.300  Level Atlanta TRACON
Mon 19:41:00 33.6838 -83.8356 101° East  Level FlightAware Approximate
Mon 19:41:41 33.6356 -84.0539 88° East 298 552 9.000  Level Atlanta Center
Mon 19:42:00 33.6593 -83.6891 101° East  Level FlightAware Approximate
Mon 19:42:41 33.6419 -83.9514 86° East 298 552 10.400  Level Atlanta Center
Mon 19:43:41 33.6500 -83.8367 85° East 327 605 11.800 1.700 Climbing Atlanta Center
Mon 19:44:41 33.6561 -83.7269 86° East 355 658 13.800 2.050 Climbing Atlanta Center
Mon 19:45:41 33.6767 -83.5969 79° East 377 698 15.900 1.700 Climbing Atlanta Center
Mon 19:46:41 33.7283 -83.4744 63° Northeast 390 723 17.200 1.350 Climbing Atlanta Center
Mon 19:47:41 33.7797 -83.3464 64° Northeast 408 756 18.600 1.450 Climbing Atlanta Center
Mon 19:48:41 33.8353 -83.2111 64° Northeast 431 798 20.100 1.550 Climbing Atlanta Center
Mon 19:49:41 33.8928 -83.0703 64° Northeast 454 840 21.700 1.500 Climbing Atlanta Center
Mon 19:50:41 33.9500 -82.9294 64° Northeast 461 855 23.100 1.350 Climbing Atlanta Center
Mon 19:51:41 34.0069 -82.7833 65° Northeast 469 869 24.400 1.500 Climbing Atlanta Center
Mon 19:52:41 34.0678 -82.6244 65° Northeast 469 869 26.100 1.500 Climbing Atlanta Center
Mon 19:53:41 34.1144 -82.5083 64° Northeast 469 869 27.400 1.350 Climbing Atlanta Center
Mon 19:54:41 34.1772 -82.3514 64° Northeast 469 869 28.800 1.200 Climbing Atlanta Center
Mon 19:55:41 34.2314 -82.2072 66° East 464 859 29.800 850 Climbing Atlanta Center
Mon 19:56:41 34.2961 -82.0675 61° Northeast 464 859 30.500 650 Climbing Atlanta Center
Mon 19:57:41 34.3647 -81.9300 59° Northeast 469 869 31.100 700 Climbing Atlanta Center
Mon 19:59:00 34.4447 -81.7591 60° Northeast  Level FlightAware Approximate
Mon 19:59:41 34.5056 -81.6517 60° Northeast 479 887 32.600  Level Atlanta Center
Mon 20:00:41 34.5739 -81.5086 60° Northeast 479 887 33.000 200 Climbing Atlanta Center
Mon 20:01:41 34.6419 -81.3725 59° Northeast 479 887 33.000  Level Atlanta Center
Mon 20:02:41 34.7117 -81.2289 59° Northeast 479 887 33.000  Level Atlanta Center
Mon 20:03:41 34.7794 -81.0875 60° Northeast 479 887 33.000  Level Atlanta Center
Mon 20:04:41 34.8508 -80.9433 59° Northeast 479 887 33.000  Level Atlanta Center
Mon 20:05:41 34.9183 -80.8039 59° Northeast 485 898 33.000  Level Atlanta Center
Mon 20:06:41 34.9875 -80.6619 59° Northeast 485 898 33.000  Level Atlanta Center
Mon 20:08:43 35.1258 -80.3661 60° Northeast 501 929 33.000  Level Washington Center
Mon 20:09:43 35.1964 -80.2203 59° Northeast 496 919 33.000  Level Washington Center
Mon 20:10:43 35.2667 -80.0744 59° Northeast 496 919 33.000  Level Washington Center
Mon 20:11:43 35.3433 -79.9156 59° Northeast 488 904 33.000  Level Washington Center
Mon 20:12:43 35.4111 -79.7717 60° Northeast 488 904 33.000  Level Washington Center
Mon 20:13:43 35.4789 -79.6247 60° Northeast 488 904 33.000  Level Washington Center
Mon 20:14:43 35.5461 -79.4800 60° Northeast 488 904 33.000  Level Washington Center
Mon 20:15:43 35.6019 -79.3653 59° Northeast 488 904 33.000  Level Washington Center
Mon 20:16:43 35.6847 -79.1900 60° Northeast 488 904 33.000  Level Washington Center
Mon 20:17:43 35.7558 -79.0422 59° Northeast 493 912 33.000  Level Washington Center
Mon 20:18:43 35.8247 -78.8942 60° Northeast 493 912 33.000  Level Washington Center
Mon 20:19:43 35.8789 -78.7425 66° East 486 900 33.000  Level Washington Center
Mon 20:20:43 35.8956 -78.5817 83° East 472 874 33.000  Level Washington Center
Mon 20:21:43 35.9119 -78.4208 83° East 472 874 33.000  Level Washington Center
Mon 20:22:43 35.9281 -78.2597 83° East 472 874 33.000  Level Washington Center
Mon 20:23:43 35.9419 -78.0986 84° East 472 874 33.000  Level Washington Center
Mon 20:24:43 35.9578 -77.9375 83° East 472 874 33.000  Level Washington Center
Mon 20:25:43 35.9733 -77.7761 83° East 472 874 33.000  Level Washington Center
Mon 20:26:43 36.0281 -77.6286 65° Northeast 460 851 33.000  Level Washington Center
Mon 20:27:43 36.0972 -77.4814 60° Northeast 473 875 33.000  Level Washington Center
Mon 20:28:43 36.1081 -77.3222 85° East 459 850 33.000  Level Washington Center
Mon 20:29:43 36.1039 -77.1833 92° East 443 821 33.000  Level Washington Center
Mon 20:30:43 36.0892 -77.0133 96° East 443 821 33.000  Level Washington Center
Mon 20:31:43 36.0783 -76.8592 95° East 443 821 33.000  Level Washington Center
Mon 20:32:43 36.0717 -76.7047 93° East 443 821 33.000  Level Washington Center
Mon 20:33:43 36.0647 -76.5453 93° East 449 832 33.000  Level Washington Center
Mon 20:34:43 36.1033 -76.3914 73° East 449 832 33.000  Level Washington Center
Mon 20:35:43 36.2103 -76.2819 40° Northeast 449 832 33.000  Level Washington Center
Mon 20:36:43 36.3483 -76.2211 20° North 463 858 33.000  Level Washington Center
Mon 20:37:43 36.4864 -76.1628 19° North 494 914 33.000  Level Washington Center
Mon 20:38:43 36.6244 -76.1069 18° North 506 937 33.000  Level Washington Center
Mon 20:39:43 36.7581 -76.0456 20° North 511 946 33.000  Level Washington Center
Mon 20:40:43 36.8981 -75.9842 19° North 519 961 33.000  Level Washington Center
Mon 20:41:43 37.0256 -75.9300 19° North 524 970 33.000  Level Washington Center
Mon 20:42:43 37.1614 -75.8708 19° North 524 970 33.000  Level Washington Center
Mon 20:43:43 37.2992 -75.8086 20° North 524 970 33.000  Level Washington Center
Mon 20:44:43 37.4347 -75.7489 19° North 524 970 33.000  Level Washington Center
Mon 20:45:43 37.5725 -75.6889 19° North 524 970 33.000  Level Washington Center
Mon 20:46:43 37.7081 -75.6233 21° North 524 970 33.000  Level Washington Center
Mon 20:47:43 37.8458 -75.5656 18° North 524 970 33.000  Level Washington Center
Mon 20:48:43 37.9853 -75.5047 19° North 524 970 33.000  Level Washington Center
Mon 20:49:43 38.1189 -75.4333 23° Northeast 524 970 33.000  Level Washington Center
Mon 20:50:43 38.2481 -75.3511 27° Northeast 524 970 33.000  Level Washington Center
Mon 20:51:43 38.3811 -75.2606 28° Northeast 524 970 33.000  Level Washington Center
Mon 20:52:43 38.5122 -75.1806 26° Northeast 524 970 33.000  Level Washington Center
Mon 20:53:43 38.6433 -75.0919 28° Northeast 524 970 33.000  Level Washington Center
Mon 20:54:43 38.7764 -75.0086 26° Northeast 524 970 33.000 -800 Level Washington Center
Mon 20:55:43 38.9072 -74.9247 27° Northeast 529 980 31.400 -2.500 Descending Washington Center
Mon 20:56:43 39.0400 -74.8406 26° Northeast 529 980 28.000 -3.000 Descending Washington Center
Mon 20:57:43 39.1644 -74.7350 33° Northeast 529 980 25.400 -2.200 Descending Washington Center
Mon 20:58:43 39.2697 -74.6158 41° Northeast 523 969 23.600 -1.650 Descending Washington Center
Mon 20:59:43 39.3669 -74.5097 40° Northeast 490 908 22.100 -1.787 Descending Washington Center
Mon 21:01:51 39.5692 -74.2908 40° Northeast 416 771 18.000 -1.302 Descending New York Center
Mon 21:02:52 39.6489 -74.2031 40° Northeast 384 711 18.000 -197 Level New York Center
Mon 21:03:53 39.7286 -74.1153 40° Northeast 377 698 17.600 -1.613 Descending New York Center
Mon 21:04:51 39.8017 -74.0375 39° Northeast 370 686 14.800 -2.898 Descending New York Center
Mon 21:05:51 39.8956 -73.9556 34° Northeast 370 686 11.900 -1.900 Descending New York Center
Mon 21:06:51 39.9806 -73.8917 30° Northeast 360 666 11.000 -446 Descending New York Center
Mon 21:07:52 40.0550 -73.8381 29° Northeast 320 592 11.000 -446 Level New York Center
Mon 21:08:52 40.1253 -73.7814 32° Northeast 299 554 10.100 -1.314 Descending New York Center
Mon 21:09:37 40.1833 -73.7500 22° Northeast 289 536 8.700 -1.636 Descending New York TRACON
Mon 21:10:31 40.2333 -73.7833 333° Northwest 283 525 7.400 -1.316 Descending New York TRACON
Mon 21:11:31 40.3000 -73.8500 323° Northwest 262 486 6.200 -1.125 Descending New York TRACON
Mon 21:11:51 40.3081 -73.8819 288° West 244 452 5.900 -1.333 Descending New York Center
Mon 21:12:52 40.3394 -73.9569 299° West 244 452 4.400 -934 Descending New York Center
Mon 21:13:53 40.3906 -73.9972 329° Northwest 218 404 4.000 -727 Descending New York Center
Mon 21:14:31 40.4333 -74.0000 357° North 220 407 3.200 -551 Descending New York TRACON
Mon 21:15:31 40.4833 -74.0000 360° North 203 377 3.100 -50 Descending New York TRACON
Mon 21:16:31 40.5333 -73.9667 27° Northeast 173 320 3.100 -500 Level New York TRACON
Mon 21:17:31 40.5667 -73.9333 37° Northeast 163 303 2.100 -800 Descending New York TRACON
Mon 21:18:31 40.6000 -73.9000 37° Northeast 155 286 1.500 -550 Descending New York TRACON
Mon 21:19:31 40.6333 -73.8833 21° North 137 254 1.000 -500 Descending New York TRACON

Login

Don't have an account? Register now (free) for customized features, flight alerts, and more!